Wetterdaten: Woche 01.09.03 - 07.09.03 (KW36)
Datum Zeit Temperatur Luftfeuchte Luftdruck Regenmenge Wind Richtung Taupunkt Windchill
01.09.2003 00:00 9.8 C 89 % 1018.0 hPa 0.0 l/m 0.0 km/h (0 Bft) N 8.0 C 9.8 C
01.09.2003 01:00 9.2 C 90 % 1018.0 hPa 0.0 l/m 0.0 km/h (0 Bft) N 7.7 C 9.2 C
01.09.2003 02:00 8.7 C 92 % 1017.0 hPa 0.0 l/m 0.0 km/h (0 Bft) N 7.5 C 8.7 C
01.09.2003 03:00 8.4 C 93 % 1016.9 hPa 0.0 l/m 0.0 km/h (0 Bft) N 7.4 C 8.4 C
01.09.2003 04:00 8.4 C 94 % 1016.9 hPa 0.0 l/m 0.1 km/h (0 Bft) W-SW 7.5 C 8.4 C
01.09.2003 05:00 7.8 C 94 % 1016.5 hPa 0.0 l/m 0.3 km/h (0 Bft) O 6.9 C 7.8 C
01.09.2003 06:00 7.1 C 95 % 1016.9 hPa 0.0 l/m 0.6 km/h (0 Bft) O 6.3 C 7.1 C
01.09.2003 07:00 7.9 C 95 % 1016.9 hPa 0.0 l/m 3.9 km/h (1 Bft) O-SO 7.2 C 7.2 C
01.09.2003 08:00 9.5 C 92 % 1016.9 hPa 0.0 l/m 1.1 km/h (1 Bft) W-NW 8.2 C 9.5 C
01.09.2003 09:00 10.7 C 79 % 1016.9 hPa 0.0 l/m 1.8 km/h (1 Bft) W-NW 7.2 C 10.7 C
01.09.2003 10:00 12.7 C 68 % 1016.9 hPa 0.0 l/m 1.0 km/h (0 Bft) W 6.9 C 12.7 C
01.09.2003 11:00 15.3 C 56 % 1016.9 hPa 0.0 l/m 0.4 km/h (0 Bft) NW 6.7 C 15.3 C
01.09.2003 12:00 16.4 C 54 % 1016.9 hPa 0.0 l/m 2.3 km/h (1 Bft) O-NO 6.9 C 16.4 C
01.09.2003 13:00 17.0 C 47 % 1016.8 hPa 0.0 l/m 3.1 km/h (1 Bft) W-NW 5.7 C 17.0 C
01.09.2003 14:00 16.8 C 48 % 1016.9 hPa 0.0 l/m 4.9 km/h (1 Bft) W-NW 5.7 C 16.8 C
01.09.2003 15:00 18.1 C 40 % 1016.2 hPa 0.0 l/m 11.4 km/h (2 Bft) W-NW 4.2 C 18.1 C
01.09.2003 16:00 18.3 C 39 % 1015.9 hPa 0.0 l/m 17.6 km/h (3 Bft) W-NW 4.1 C 18.3 C
01.09.2003 17:00 18.3 C 36 % 1016.8 hPa 0.0 l/m 13.4 km/h (3 Bft) W-NW 2.8 C 18.3 C
01.09.2003 18:00 17.2 C 39 % 1018.0 hPa 0.0 l/m 8.0 km/h (2 Bft) W-NW 3.2 C 17.2 C
01.09.2003 19:00 15.6 C 47 % 1018.4 hPa 0.0 l/m 0.0 km/h (0 Bft) S-SW 4.2 C 15.6 C
01.09.2003 20:00 14.1 C 55 % 1019.2 hPa 0.0 l/m 1.2 km/h (1 Bft) S-SW 5.1 C 14.1 C
01.09.2003 21:00 12.0 C 68 % 1020.0 hPa 0.0 l/m 1.7 km/h (1 Bft) O 6.2 C 12.0 C
01.09.2003 22:00 10.8 C 72 % 1020.0 hPa 0.0 l/m 0.5 km/h (0 Bft) O 6.0 C 10.8 C
01.09.2003 23:00 10.0 C 78 % 1020.8 hPa 0.0 l/m 0.5 km/h (0 Bft) O 6.3 C 10.0 C
02.09.2003 00:00 10.2 C 82 % 1021.1 hPa 0.0 l/m 0.0 km/h (0 Bft) N 7.3 C 10.2 C
02.09.2003 01:00 10.0 C 80 % 1021.1 hPa 0.0 l/m 0.0 km/h (0 Bft) N 6.6 C 10.0 C
02.09.2003 02:00 9.3 C 84 % 1021.1 hPa 0.0 l/m 0.1 km/h (0 Bft) O 6.8 C 9.3 C
02.09.2003 03:00 8.3 C 89 % 1021.1 hPa 0.0 l/m 1.1 km/h (1 Bft) O 6.6 C 8.3 C
02.09.2003 04:00 7.3 C 92 % 1021.1 hPa 0.0 l/m 1.5 km/h (1 Bft) O-SO 6.2 C 7.2 C
02.09.2003 05:00 6.7 C 93 % 1021.3 hPa 0.0 l/m 2.4 km/h (1 Bft) O-SO 5.6 C 6.4 C
02.09.2003 06:00 6.1 C 95 % 1022.1 hPa 0.0 l/m 0.5 km/h (0 Bft) O-SO 5.3 C 6.1 C
02.09.2003 07:00 6.6 C 96 % 1022.1 hPa 0.0 l/m 2.1 km/h (1 Bft) O-SO 6.0 C 6.5 C
02.09.2003 08:00 8.5 C 93 % 1023.1 hPa 0.0 l/m 0.0 km/h (0 Bft) N 7.4 C 8.5 C
02.09.2003 09:00 10.2 C 79 % 1023.1 hPa 0.0 l/m 0.7 km/h (0 Bft) W-NW 6.8 C 10.2 C
02.09.2003 10:00 13.3 C 67 % 1023.1 hPa 0.0 l/m 6.6 km/h (2 Bft) O-SO 7.1 C 13.3 C
02.09.2003 11:00 15.4 C 57 % 1023.1 hPa 0.0 l/m 12.2 km/h (2 Bft) O-SO 7.0 C 15.4 C
02.09.2003 12:00 16.0 C 55 % 1023.1 hPa 0.0 l/m 3.5 km/h (1 Bft) O-SO 7.0 C 16.0 C
02.09.2003 13:00 16.5 C 50 % 1023.0 hPa 0.0 l/m 8.7 km/h (2 Bft) NW 6.0 C 16.5 C
02.09.2003 14:00 17.0 C 46 % 1022.8 hPa 0.0 l/m 4.2 km/h (1 Bft) NW 5.1 C 17.0 C
02.09.2003 15:00 18.8 C 38 % 1022.1 hPa 0.0 l/m 6.4 km/h (2 Bft) O-SO 3.9 C 18.8 C
02.09.2003 16:00 18.7 C 34 % 1022.1 hPa 0.0 l/m 3.9 km/h (1 Bft) O-SO 2.4 C 18.7 C
02.09.2003 17:00 18.9 C 31 % 1022.1 hPa 0.0 l/m 5.0 km/h (1 Bft) O-NO 1.3 C 18.9 C
02.09.2003 18:00 17.9 C 31 % 1022.1 hPa 0.0 l/m 2.0 km/h (1 Bft) N-NO 0.5 C 17.9 C
02.09.2003 19:00 16.6 C 33 % 1022.1 hPa 0.0 l/m 0.7 km/h (0 Bft) N-NO 0.4 C 16.6 C
02.09.2003 20:00 14.3 C 43 % 1023.0 hPa 0.0 l/m 0.1 km/h (0 Bft) N 1.9 C 14.3 C
02.09.2003 21:00 12.8 C 49 % 1024.0 hPa 0.0 l/m 0.9 km/h (0 Bft) N-NO 2.4 C 12.8 C
02.09.2003 22:00 11.8 C 54 % 1024.2 hPa 0.0 l/m 0.5 km/h (0 Bft) N 2.9 C 11.8 C
02.09.2003 23:00 10.6 C 61 % 1024.2 hPa 0.0 l/m 0.2 km/h (0 Bft) O 3.4 C 10.6 C
03.09.2003 00:00 9.5 C 67 % 1024.2 hPa 0.0 l/m 0.0 km/h (0 Bft) N 3.7 C 9.5 C
03.09.2003 01:00 7.7 C 80 % 1024.2 hPa 0.0 l/m 0.0 km/h (0 Bft) N 4.5 C 7.7 C
03.09.2003 02:00 7.1 C 85 % 1024.2 hPa 0.0 l/m 0.2 km/h (0 Bft) O-NO 4.7 C 7.1 C
03.09.2003 03:00 6.6 C 87 % 1024.2 hPa 0.0 l/m 0.0 km/h (0 Bft) N 4.6 C 6.6 C
03.09.2003 04:00 7.0 C 84 % 1025.1 hPa 0.0 l/m 0.1 km/h (0 Bft) N 4.6 C 7.0 C
03.09.2003 05:00 7.1 C 80 % 1025.0 hPa 0.0 l/m 0.2 km/h (0 Bft) O-SO 3.9 C 7.1 C
03.09.2003 06:00 6.2 C 84 % 1025.2 hPa 0.0 l/m 0.8 km/h (0 Bft) O-SO 3.7 C 6.2 C
03.09.2003 07:00 6.6 C 85 % 1025.2 hPa 0.0 l/m 0.1 km/h (0 Bft) N 4.2 C 6.6 C
03.09.2003 08:00 9.8 C 70 % 1025.7 hPa 0.0 l/m 0.8 km/h (0 Bft) S-SW 4.5 C 9.7 C
03.09.2003 09:00 11.9 C 63 % 1026.3 hPa 0.0 l/m 3.8 km/h (1 Bft) O-NO 5.0 C 11.9 C
03.09.2003 10:00 14.3 C 53 % 1026.3 hPa 0.0 l/m 12.3 km/h (3 Bft) O-SO 4.9 C 14.3 C
03.09.2003 11:00 15.8 C 46 % 1026.3 hPa 0.0 l/m 13.0 km/h (3 Bft) O 4.3 C 15.8 C
03.09.2003 12:00 17.6 C 41 % 1026.3 hPa 0.0 l/m 16.3 km/h (3 Bft) O-SO 4.1 C 17.6 C
03.09.2003 13:00 18.9 C 34 % 1026.3 hPa 0.0 l/m 10.2 km/h (2 Bft) NO 2.6 C 18.9 C
03.09.2003 14:00 19.6 C 28 % 1026.3 hPa 0.0 l/m 14.2 km/h (3 Bft) O-SO 0.8 C 19.6 C
03.09.2003 15:00 20.2 C 27 % 1026.2 hPa 0.0 l/m 11.9 km/h (2 Bft) O-SO 0.7 C 20.2 C
03.09.2003 16:00 20.1 C 28 % 1025.3 hPa 0.0 l/m 13.3 km/h (3 Bft) O-SO 1.0 C 20.1 C
03.09.2003 17:00 19.7 C 28 % 1025.2 hPa 0.0 l/m 6.5 km/h (2 Bft) O 0.9 C 19.7 C
03.09.2003 18:00 19.0 C 31 % 1026.2 hPa 0.0 l/m 6.1 km/h (2 Bft) O-SO 1.3 C 19.0 C
03.09.2003 19:00 17.8 C 32 % 1026.3 hPa 0.0 l/m 4.2 km/h (1 Bft) O 1.0 C 17.8 C
03.09.2003 20:00 15.4 C 40 % 1026.7 hPa 0.0 l/m 0.1 km/h (0 Bft) N 1.9 C 15.4 C
03.09.2003 21:00 14.4 C 42 % 1027.3 hPa 0.0 l/m 0.4 km/h (0 Bft) S-SO 1.7 C 14.4 C
03.09.2003 22:00 12.7 C 48 % 1027.3 hPa 0.0 l/m 0.1 km/h (0 Bft) N 2.0 C 12.7 C
03.09.2003 23:00 11.2 C 55 % 1027.9 hPa 0.0 l/m 0.0 km/h (0 Bft) N 2.6 C 11.2 C
04.09.2003 00:00 9.4 C 66 % 1028.3 hPa 0.0 l/m 0.0 km/h (0 Bft) N 3.5 C 9.4 C
04.09.2003 01:00 8.4 C 71 % 1028.3 hPa 0.0 l/m 0.7 km/h (0 Bft) W-NW 3.4 C 8.3 C
04.09.2003 02:00 7.5 C 75 % 1028.3 hPa 0.0 l/m 0.1 km/h (0 Bft) N 3.3 C 7.5 C
04.09.2003 03:00 7.3 C 77 % 1028.1 hPa 0.0 l/m 1.7 km/h (1 Bft) SO 3.6 C 7.2 C
04.09.2003 04:00 6.7 C 76 % 1027.4 hPa 0.0 l/m 1.3 km/h (1 Bft) SO 2.9 C 6.6 C
04.09.2003 05:00 6.0 C 82 % 1027.3 hPa 0.0 l/m 0.8 km/h (0 Bft) SO 3.1 C 5.9 C
04.09.2003 06:00 5.3 C 85 % 1027.9 hPa 0.0 l/m 1.5 km/h (1 Bft) SO 3.0 C 5.0 C
04.09.2003 07:00 5.6 C 88 % 1028.3 hPa 0.0 l/m 0.0 km/h (0 Bft) N 3.8 C 5.6 C
04.09.2003 08:00 7.7 C 81 % 1028.3 hPa 0.0 l/m 0.0 km/h (0 Bft) N 4.7 C 7.7 C
04.09.2003 09:00 10.3 C 69 % 1028.3 hPa 0.0 l/m 0.6 km/h (0 Bft) W-NW 4.9 C 10.3 C
04.09.2003 10:00 13.6 C 52 % 1028.3 hPa 0.0 l/m 3.5 km/h (1 Bft) O-SO 4.0 C 13.6 C
04.09.2003 11:00 16.2 C 47 % 1028.3 hPa 0.0 l/m 2.8 km/h (1 Bft) SO 4.8 C 16.2 C
04.09.2003 12:00 18.7 C 44 % 1027.5 hPa 0.0 l/m 6.1 km/h (2 Bft) O-SO 6.0 C 18.7 C
04.09.2003 13:00 21.0 C 38 % 1027.3 hPa 0.0 l/m 10.8 km/h (2 Bft) O-SO 6.1 C 21.0 C
04.09.2003 14:00 22.4 C 30 % 1026.3 hPa 0.0 l/m 14.8 km/h (3 Bft) O-SO 4.0 C 22.4 C
04.09.2003 15:00 22.9 C 27 % 1026.1 hPa 0.0 l/m 13.5 km/h (3 Bft) O-SO 3.0 C 22.9 C
04.09.2003 16:00 23.2 C 27 % 1025.2 hPa 0.0 l/m 17.8 km/h (3 Bft) O-SO 3.2 C 23.2 C
04.09.2003 17:00 22.8 C 26 % 1025.2 hPa 0.0 l/m 15.0 km/h (3 Bft) O-SO 2.1 C 22.8 C
04.09.2003 18:00 22.0 C 26 % 1025.2 hPa 0.0 l/m 12.4 km/h (3 Bft) O-SO 1.4 C 22.0 C
04.09.2003 19:00 20.0 C 32 % 1024.6 hPa 0.0 l/m 4.9 km/h (1 Bft) O-SO 2.8 C 20.0 C
04.09.2003 20:00 16.3 C 47 % 1025.0 hPa 0.0 l/m 2.6 km/h (1 Bft) O-SO 5.0 C 16.3 C
04.09.2003 21:00 13.7 C 58 % 1025.2 hPa 0.0 l/m 0.8 km/h (0 Bft) O-SO 5.6 C 13.7 C
04.09.2003 22:00 12.0 C 67 % 1025.2 hPa 0.0 l/m 1.0 km/h (0 Bft) O-SO 6.0 C 12.0 C
04.09.2003 23:00 10.6 C 76 % 1025.2 hPa 0.0 l/m 1.7 km/h (1 Bft) O-SO 6.6 C 10.6 C
05.09.2003 00:00 9.9 C 80 % 1025.2 hPa 0.0 l/m 1.6 km/h (1 Bft) O-SO 6.5 C 9.8 C
05.09.2003 01:00 9.0 C 83 % 1024.2 hPa 0.0 l/m 1.0 km/h (0 Bft) O-SO 6.2 C 9.0 C
05.09.2003 02:00 8.4 C 88 % 1024.2 hPa 0.0 l/m 0.4 km/h (0 Bft) O-SO 6.4 C 8.3 C
05.09.2003 03:00 7.8 C 89 % 1024.2 hPa 0.0 l/m 0.9 km/h (0 Bft) O-SO 6.2 C 7.7 C
05.09.2003 04:00 7.4 C 91 % 1024.2 hPa 0.0 l/m 0.0 km/h (0 Bft) N 5.9 C 7.4 C
05.09.2003 05:00 6.9 C 92 % 1023.7 hPa 0.0 l/m 0.2 km/h (0 Bft) O-SO 5.7 C 6.9 C
05.09.2003 06:00 6.5 C 93 % 1023.1 hPa 0.0 l/m 0.0 km/h (0 Bft) N 5.4 C 6.5 C
05.09.2003 07:00 7.3 C 92 % 1023.1 hPa 0.0 l/m 0.0 km/h (0 Bft) N 6.2 C 7.3 C
05.09.2003 08:00 9.3 C 83 % 1023.1 hPa 0.0 l/m 0.4 km/h (0 Bft) W-NW 6.5 C 9.3 C
05.09.2003 09:00 11.9 C 71 % 1023.1 hPa 0.0 l/m 0.1 km/h (0 Bft) N 6.8 C 11.9 C
05.09.2003 10:00 14.8 C 57 % 1023.1 hPa 0.0 l/m 2.7 km/h (1 Bft) W-NW 6.4 C 14.8 C
05.09.2003 11:00 17.5 C 49 % 1022.2 hPa 0.0 l/m 1.7 km/h (1 Bft) W-NW 6.6 C 17.5 C
05.09.2003 12:00 20.2 C 43 % 1021.3 hPa 0.0 l/m 4.2 km/h (1 Bft) W-NW 7.1 C 20.2 C
05.09.2003 13:00 22.7 C 36 % 1020.4 hPa 0.0 l/m 2.9 km/h (1 Bft) W-NW 7.0 C 22.7 C
05.09.2003 14:00 24.1 C 33 % 1020.2 hPa 0.0 l/m 2.7 km/h (1 Bft) NW 6.8 C 24.1 C
05.09.2003 15:00 24.2 C 35 % 1019.0 hPa 0.0 l/m 3.4 km/h (1 Bft) W-NW 7.6 C 24.2 C
05.09.2003 16:00 23.8 C 32 % 1018.6 hPa 0.0 l/m 13.5 km/h (3 Bft) W-NW 6.1 C 23.8 C
05.09.2003 17:00 22.6 C 35 % 1018.0 hPa 0.0 l/m 14.2 km/h (3 Bft) W-NW 6.4 C 22.6 C
05.09.2003 18:00 21.7 C 38 % 1018.1 hPa 0.0 l/m 12.2 km/h (2 Bft) W-NW 6.7 C 21.7 C
05.09.2003 19:00 20.8 C 39 % 1018.0 hPa 0.0 l/m 16.0 km/h (3 Bft) W-NW 6.4 C 20.8 C
05.09.2003 20:00 19.5 C 43 % 1018.0 hPa 0.0 l/m 8.9 km/h (2 Bft) W-NW 6.6 C 19.5 C
05.09.2003 21:00 17.8 C 52 % 1019.0 hPa 0.0 l/m 4.1 km/h (1 Bft) W-NW 7.8 C 17.8 C
05.09.2003 22:00 16.8 C 60 % 1019.0 hPa 0.0 l/m 4.1 km/h (1 Bft) W-NW 9.0 C 16.8 C
05.09.2003 23:00 16.7 C 60 % 1019.0 hPa 0.0 l/m 2.0 km/h (1 Bft) W-NW 8.9 C 16.7 C
06.09.2003 00:00 16.0 C 66 % 1019.0 hPa 0.0 l/m 0.0 km/h (0 Bft) N 9.6 C 16.0 C
06.09.2003 01:00 15.7 C 74 % 1019.0 hPa 0.0 l/m 0.0 km/h (0 Bft) N 11.1 C 15.7 C
06.09.2003 02:00 15.2 C 78 % 1018.4 hPa 0.0 l/m 0.0 km/h (0 Bft) N 11.5 C 15.2 C
06.09.2003 03:00 15.0 C 80 % 1018.0 hPa 0.0 l/m 0.0 km/h (0 Bft) N 11.5 C 15.0 C
06.09.2003 04:00 14.7 C 83 % 1018.0 hPa 0.0 l/m 0.0 km/h (0 Bft) N 11.9 C 14.7 C
06.09.2003 05:00 14.6 C 84 % 1018.0 hPa 0.0 l/m 0.0 km/h (0 Bft) N 11.9 C 14.6 C
06.09.2003 06:00 14.6 C 84 % 1018.0 hPa 0.0 l/m 0.0 km/h (0 Bft) N 11.8 C 14.6 C
06.09.2003 07:00 14.4 C 87 % 1018.4 hPa 0.0 l/m 0.0 km/h (0 Bft) N 12.2 C 14.4 C
06.09.2003 08:00 14.8 C 87 % 1019.0 hPa 0.0 l/m 0.0 km/h (0 Bft) N 12.7 C 14.8 C
06.09.2003 09:00 15.4 C 84 % 1019.0 hPa 0.0 l/m 0.9 km/h (0 Bft) S 12.8 C 15.4 C
06.09.2003 10:00 16.8 C 79 % 1019.2 hPa 0.0 l/m 0.0 km/h (0 Bft) N 13.1 C 16.8 C
06.09.2003 11:00 17.1 C 80 % 1020.0 hPa 0.0 l/m 0.0 km/h (0 Bft) N 13.6 C 17.1 C
06.09.2003 12:00 17.5 C 81 % 1020.0 hPa 0.0 l/m 3.4 km/h (1 Bft) SO 14.3 C 17.5 C
06.09.2003 13:00 18.4 C 74 % 1019.4 hPa 0.0 l/m 2.3 km/h (1 Bft) SO 13.6 C 18.4 C
06.09.2003 14:00 20.8 C 62 % 1019.0 hPa 0.0 l/m 5.1 km/h (1 Bft) O-SO 13.2 C 20.8 C
06.09.2003 15:00 21.1 C 60 % 1019.0 hPa 0.0 l/m 2.4 km/h (1 Bft) S-SO 13.1 C 21.1 C
06.09.2003 16:00 21.8 C 57 % 1018.0 hPa 0.0 l/m 1.3 km/h (1 Bft) SO 12.8 C 21.8 C
06.09.2003 17:00 20.9 C 60 % 1018.0 hPa 0.0 l/m 2.8 km/h (1 Bft) S 12.8 C 20.9 C
06.09.2003 18:00 18.2 C 85 % 1018.0 hPa 1.1 l/m 2.0 km/h (1 Bft) W-NW 15.6 C 18.2 C
06.09.2003 19:00 17.1 C 91 % 1018.0 hPa 0.0 l/m 0.6 km/h (0 Bft) S-SW 15.6 C 17.1 C
06.09.2003 20:00 16.6 C 96 % 1018.7 hPa 0.0 l/m 0.3 km/h (0 Bft) S-SO 16.0 C 16.6 C
06.09.2003 21:00 15.9 C 92 % 1019.0 hPa 0.0 l/m 1.7 km/h (1 Bft) SO 14.5 C 15.9 C
06.09.2003 22:00 15.6 C 93 % 1019.0 hPa 0.0 l/m 0.8 km/h (0 Bft) SO 14.4 C 15.6 C
06.09.2003 23:00 15.3 C 94 % 1019.0 hPa 0.0 l/m 0.0 km/h (0 Bft) N 14.3 C 15.3 C
07.09.2003 00:00 15.0 C 94 % 1019.0 hPa 0.0 l/m 1.8 km/h (1 Bft) SO 14.1 C 15.0 C
07.09.2003 01:00 14.8 C 94 % 1018.7 hPa 0.0 l/m 0.3 km/h (0 Bft) SO 13.8 C 14.8 C
07.09.2003 02:00 14.7 C 94 % 1018.5 hPa 0.0 l/m 1.0 km/h (0 Bft) SO 13.7 C 14.7 C
07.09.2003 03:00 14.7 C 95 % 1018.0 hPa 0.0 l/m 0.0 km/h (0 Bft) N 13.9 C 14.7 C
07.09.2003 04:00 14.9 C 95 % 1018.0 hPa 0.4 l/m 0.2 km/h (0 Bft) SO 14.1 C 14.9 C
07.09.2003 05:00 14.7 C 95 % 1018.0 hPa 0.0 l/m 0.0 km/h (0 Bft) N 14.0 C 14.7 C
07.09.2003 06:00 14.9 C 95 % 1017.5 hPa 0.0 l/m 0.0 km/h (0 Bft) N 14.2 C 14.9 C
07.09.2003 07:00 15.1 C 99 % 1016.9 hPa 0.0 l/m 1.0 km/h (0 Bft) SO 14.9 C 15.1 C
07.09.2003 08:00 15.7 C 99 % 1016.9 hPa 0.0 l/m 3.1 km/h (1 Bft) SO 15.5 C 15.7 C
07.09.2003 09:00 16.5 C 91 % 1016.9 hPa 0.0 l/m 6.5 km/h (2 Bft) O-SO 15.0 C 16.5 C
07.09.2003 10:00 17.1 C 85 % 1016.8 hPa 0.0 l/m 2.0 km/h (1 Bft) O-SO 14.5 C 17.1 C
07.09.2003 11:00 18.4 C 76 % 1016.0 hPa 0.0 l/m 0.5 km/h (0 Bft) W-NW 14.1 C 18.4 C
07.09.2003 12:00 20.2 C 67 % 1015.4 hPa 0.0 l/m 1.6 km/h (1 Bft) W-NW 13.8 C 20.2 C
07.09.2003 13:00 21.8 C 59 % 1014.6 hPa 0.0 l/m 2.6 km/h (1 Bft) W-NW 13.3 C 21.8 C
07.09.2003 14:00 22.6 C 55 % 1013.8 hPa 0.0 l/m 3.7 km/h (1 Bft) W-NW 13.1 C 22.6 C
07.09.2003 15:00 24.2 C 48 % 1012.8 hPa 0.0 l/m 0.5 km/h (0 Bft) SO 12.5 C 24.2 C
07.09.2003 16:00 25.0 C 43 % 1012.1 hPa 0.0 l/m 0.7 km/h (0 Bft) SO 11.6 C 25.0 C
07.09.2003 17:00 23.6 C 46 % 1011.6 hPa 0.0 l/m 0.7 km/h (0 Bft) O-NO 11.2 C 23.6 C
07.09.2003 18:00 22.2 C 51 % 1010.7 hPa 0.0 l/m 0.1 km/h (0 Bft) O 11.5 C 22.2 C
07.09.2003 19:00 20.9 C 56 % 1010.6 hPa 0.0 l/m 0.0 km/h (0 Bft) N 11.6 C 20.9 C
07.09.2003 20:00 19.9 C 62 % 1010.2 hPa 0.0 l/m 0.0 km/h (0 Bft) N 12.2 C 19.9 C
07.09.2003 21:00 19.1 C 65 % 1009.7 hPa 0.0 l/m 0.1 km/h (0 Bft) N 12.3 C 19.1 C
07.09.2003 22:00 18.0 C 71 % 1009.9 hPa 0.0 l/m 2.7 km/h (1 Bft) W-NW 12.6 C 18.0 C
07.09.2003 23:00 17.3 C 68 % 1011.0 hPa 0.0 l/m 34.7 km/h (5 Bft) NW 11.3 C 17.3 C
Min-Datum _ 04.09.03 04.09.03 07.09.03 - 01.09.03 - 03.09.03 04.09.03
_ Min-Zeit 06:40 18:34 19:53 - 00:01 - 15:05 06:16
Minimum _ 5.0 C 24 % 1009.7 hPa - 0.0 km/h (0 Bft) - -0.8 C 3.3 C
Max-Datum _ 07.09.03 07.09.03 03.09.03 06.09.03 07.09.03 - 06.09.03 07.09.03
_ Max-Zeit 16:20 07:05 23:25 18:10 23:41 - 18:25 16:20
Maximum _ 25.5 C 100 % 1028.3 hPa 1.1 l/m 49.1 km/h
NW (6 Bft)
- 16.5 C 25.5 C
Durchschnitt _ 14.6 C 66 % 1021.1 hPa #1.5 l/m 3.3 km/h (1 Bft) O-SO 7.3 C 14.6 C

Durchschnitt Minimum Temp.13.8 C
Durchschnitt Maximum Temp.15.5 C
© Kaiko 2003